createdAt,value
2018-08-20T00:01:34.770Z,24.20
2018-08-20T00:04:07.719Z,24.10
2018-08-20T00:06:50.900Z,24.00
2018-08-20T00:09:19.827Z,24.00
2018-08-20T00:11:47.737Z,23.90
2018-08-20T00:14:16.851Z,23.80
2018-08-20T00:16:44.382Z,23.80
2018-08-20T00:19:13.181Z,23.70
2018-08-20T00:21:41.365Z,23.70
2018-08-20T00:24:08.885Z,23.60
2018-08-20T00:26:36.498Z,23.60
2018-08-20T00:29:04.649Z,23.60
2018-08-20T00:31:32.232Z,23.50
2018-08-20T00:33:59.762Z,23.50
2018-08-20T00:36:27.284Z,23.50
2018-08-20T00:38:54.801Z,23.40
2018-08-20T00:41:22.318Z,23.40
2018-08-20T00:43:49.829Z,23.30
2018-08-20T00:46:17.311Z,23.30
2018-08-20T00:48:44.846Z,23.30
2018-08-20T00:51:12.373Z,23.20
2018-08-20T00:53:39.902Z,23.20
2018-08-20T00:56:07.427Z,23.20
2018-08-20T00:58:34.965Z,23.10
2018-08-20T01:01:02.490Z,23.10
2018-08-20T01:03:29.993Z,23.10
2018-08-20T01:05:57.548Z,23.00
2018-08-20T01:08:25.061Z,23.00
2018-08-20T01:10:52.572Z,22.90
2018-08-20T01:13:20.179Z,22.90
2018-08-20T01:15:47.691Z,22.80
2018-08-20T01:18:15.291Z,22.80
2018-08-20T01:20:42.837Z,22.80
2018-08-20T01:23:10.329Z,22.80
2018-08-20T01:25:37.884Z,22.70
2018-08-20T01:28:05.454Z,22.70
2018-08-20T01:30:32.957Z,22.70
2018-08-20T01:33:09.889Z,22.60
2018-08-20T01:35:37.415Z,22.60
2018-08-20T01:38:05.241Z,22.60
2018-08-20T01:40:33.093Z,22.60
2018-08-20T01:43:00.689Z,22.60
2018-08-20T01:45:28.245Z,22.50
2018-08-20T01:47:55.765Z,22.50
2018-08-20T01:50:23.269Z,22.50
2018-08-20T01:52:50.813Z,22.50
2018-08-20T01:55:18.377Z,22.50
2018-08-20T01:57:45.879Z,22.50
2018-08-20T02:00:13.367Z,22.50
2018-08-20T02:02:40.970Z,22.50
2018-08-20T02:05:08.709Z,22.50
2018-08-20T02:07:36.413Z,22.60
2018-08-20T02:10:05.393Z,22.60
2018-08-20T02:12:32.967Z,22.60
2018-08-20T02:15:00.892Z,22.50
2018-08-20T02:17:28.399Z,22.60
2018-08-20T02:19:55.943Z,22.60
2018-08-20T02:22:23.464Z,22.60
2018-08-20T02:24:50.951Z,22.60
2018-08-20T02:27:18.439Z,22.50
2018-08-20T02:29:45.971Z,22.50
2018-08-20T02:32:13.519Z,22.50
2018-08-20T02:34:41.005Z,22.50
2018-08-20T02:37:08.598Z,22.50
2018-08-20T02:39:36.126Z,22.50
2018-08-20T02:42:03.667Z,22.50
2018-08-20T02:44:31.209Z,22.50
2018-08-20T02:46:58.862Z,22.40
2018-08-20T02:49:26.624Z,22.40
2018-08-20T02:51:54.224Z,22.30
2018-08-20T02:54:21.723Z,22.30
2018-08-20T02:56:49.266Z,22.30
2018-08-20T02:59:16.795Z,22.30
2018-08-20T03:01:44.281Z,22.20
2018-08-20T03:04:11.812Z,22.20
2018-08-20T03:06:39.417Z,22.20
2018-08-20T03:09:12.426Z,22.10
2018-08-20T03:11:39.932Z,22.10
2018-08-20T03:14:07.520Z,22.10
2018-08-20T03:16:35.799Z,22.00
2018-08-20T03:19:03.442Z,22.00
2018-08-20T03:21:30.955Z,22.00
2018-08-20T03:23:58.494Z,21.90
2018-08-20T03:26:26.363Z,21.90
2018-08-20T03:28:53.898Z,21.80
2018-08-20T03:31:21.484Z,21.80
2018-08-20T03:33:48.986Z,21.70
2018-08-20T03:36:16.646Z,21.70
2018-08-20T03:38:44.172Z,21.70
2018-08-20T03:41:11.714Z,21.60
2018-08-20T03:43:39.210Z,21.60
2018-08-20T03:46:06.754Z,21.60
2018-08-20T03:48:34.426Z,21.60
2018-08-20T03:51:01.995Z,21.60
2018-08-20T03:53:29.530Z,21.60
2018-08-20T03:55:57.070Z,21.50
2018-08-20T03:58:24.587Z,21.50
2018-08-20T04:00:52.161Z,21.60
2018-08-20T04:03:19.685Z,21.60
2018-08-20T04:05:47.220Z,21.60
2018-08-20T04:08:14.742Z,21.60
2018-08-20T04:10:42.261Z,21.60
2018-08-20T04:13:09.762Z,21.60
2018-08-20T04:15:37.282Z,21.70
2018-08-20T04:18:04.883Z,21.70
2018-08-20T04:20:32.394Z,21.80
2018-08-20T04:22:59.900Z,21.80
2018-08-20T04:25:27.407Z,21.80
2018-08-20T04:27:54.967Z,21.80
2018-08-20T04:30:22.521Z,21.80
2018-08-20T04:32:50.034Z,21.80
2018-08-20T04:35:17.512Z,21.90
2018-08-20T04:37:44.967Z,21.90
2018-08-20T04:40:12.504Z,22.00
2018-08-20T04:42:39.994Z,22.00
2018-08-20T04:45:08.015Z,22.00
2018-08-20T04:47:35.708Z,22.00
2018-08-20T04:50:04.118Z,22.00
2018-08-20T04:52:31.488Z,22.10
2018-08-20T04:54:59.025Z,22.10
2018-08-20T04:57:26.529Z,22.10
2018-08-20T04:59:54.026Z,22.20
2018-08-20T05:02:21.579Z,22.20
2018-08-20T05:04:49.094Z,22.30
2018-08-20T05:07:16.645Z,22.30
2018-08-20T05:09:44.185Z,22.30
2018-08-20T05:12:11.702Z,22.40
2018-08-20T05:14:39.222Z,22.40
2018-08-20T05:17:06.768Z,22.40
2018-08-20T05:19:34.285Z,22.40
2018-08-20T05:22:01.814Z,22.40
2018-08-20T05:24:29.403Z,22.30
2018-08-20T05:26:56.912Z,22.20
2018-08-20T05:29:24.493Z,22.20
2018-08-20T05:31:51.991Z,22.20
2018-08-20T05:34:19.500Z,22.10
2018-08-20T05:36:47.023Z,22.10
2018-08-20T05:39:14.580Z,22.10
2018-08-20T05:41:42.143Z,22.10
2018-08-20T05:44:09.662Z,22.10
2018-08-20T05:46:37.162Z,22.10
2018-08-20T05:49:04.982Z,22.10
2018-08-20T05:51:32.700Z,22.10
2018-08-20T05:54:00.340Z,22.20
2018-08-20T05:56:27.868Z,22.20
2018-08-20T05:58:55.448Z,22.20
2018-08-20T06:01:23.014Z,22.20
2018-08-20T06:03:50.559Z,22.20
2018-08-20T06:06:18.089Z,22.20
2018-08-20T06:08:45.711Z,22.30
2018-08-20T06:11:13.291Z,22.30
2018-08-20T06:13:40.849Z,22.30
2018-08-20T06:16:08.390Z,22.40
2018-08-20T06:18:35.932Z,22.40
2018-08-20T06:21:03.476Z,22.40
2018-08-20T06:23:31.090Z,22.40
2018-08-20T06:25:58.710Z,22.50
2018-08-20T06:28:26.270Z,22.50
2018-08-20T06:30:53.822Z,22.50
2018-08-20T06:33:21.388Z,22.60
2018-08-20T06:35:48.966Z,22.70
2018-08-20T06:38:16.522Z,22.70
2018-08-20T06:40:44.122Z,22.80
2018-08-20T06:43:11.659Z,22.80
2018-08-20T06:45:39.273Z,22.90
2018-08-20T06:48:06.935Z,23.00
2018-08-20T06:50:34.516Z,23.10
2018-08-20T06:53:02.138Z,23.10
2018-08-20T06:55:30.123Z,23.20
2018-08-20T06:57:57.722Z,23.30
2018-08-20T07:00:25.354Z,23.30
2018-08-20T07:02:52.921Z,23.30
2018-08-20T07:05:20.520Z,23.40
2018-08-20T07:07:48.043Z,23.50
2018-08-20T07:10:15.640Z,23.50
2018-08-20T07:12:43.298Z,23.60
2018-08-20T07:15:12.752Z,23.70
2018-08-20T07:17:40.307Z,23.70
2018-08-20T07:20:09.404Z,23.80
2018-08-20T07:22:37.122Z,23.90
2018-08-20T07:25:05.362Z,24.10
2018-08-20T07:27:33.554Z,24.00
2018-08-20T07:30:01.136Z,24.10
2018-08-20T07:32:28.713Z,24.10
2018-08-20T07:34:56.291Z,24.10
2018-08-20T07:37:23.906Z,24.20
2018-08-20T07:39:51.501Z,24.30
2018-08-20T07:42:19.207Z,24.40
2018-08-20T07:44:46.778Z,24.40
2018-08-20T07:47:14.413Z,24.50
2018-08-20T07:49:42.013Z,24.60
2018-08-20T07:52:10.370Z,24.60
2018-08-20T07:54:38.813Z,24.70
2018-08-20T07:57:07.603Z,24.80
2018-08-20T07:59:35.247Z,24.80
2018-08-20T08:02:02.931Z,24.90
2018-08-20T08:04:30.550Z,25.00
2018-08-20T08:06:58.567Z,25.00
2018-08-20T08:09:26.325Z,25.00
2018-08-20T08:11:54.085Z,25.10
2018-08-20T08:14:21.758Z,25.30
2018-08-20T08:16:49.353Z,25.30
2018-08-20T08:19:17.123Z,25.40
2018-08-20T08:21:44.747Z,25.40
2018-08-20T08:24:12.393Z,25.50
2018-08-20T08:26:40.005Z,25.60
2018-08-20T08:29:07.615Z,25.70
2018-08-20T08:31:35.282Z,25.70
2018-08-20T08:34:02.880Z,25.80
2018-08-20T08:36:30.510Z,25.90
2018-08-20T08:38:58.095Z,25.90
2018-08-20T08:41:25.660Z,25.90
2018-08-20T08:43:53.325Z,25.90
2018-08-20T08:46:20.986Z,26.00
2018-08-20T08:48:48.602Z,26.10
2018-08-20T08:51:16.198Z,26.10
2018-08-20T08:53:43.828Z,26.30
2018-08-20T08:56:11.518Z,26.40
2018-08-20T08:58:39.130Z,26.40
2018-08-20T09:01:06.863Z,26.50
2018-08-20T09:03:34.518Z,26.60
2018-08-20T09:06:03.211Z,26.60
2018-08-20T09:08:30.800Z,26.70
2018-08-20T09:10:58.651Z,26.80
2018-08-20T09:13:26.387Z,26.90
2018-08-20T09:15:54.691Z,27.00
2018-08-20T09:18:22.384Z,27.10
2018-08-20T09:20:50.012Z,27.20
2018-08-20T09:23:17.680Z,27.30
2018-08-20T09:25:45.596Z,27.40
2018-08-20T09:28:13.334Z,27.50
2018-08-20T09:30:41.010Z,27.60
2018-08-20T09:33:08.965Z,27.60
2018-08-20T09:35:36.639Z,27.70
2018-08-20T09:38:04.409Z,27.80
2018-08-20T09:40:32.139Z,27.90
2018-08-20T09:42:59.681Z,27.90
2018-08-20T09:45:27.223Z,28.10
2018-08-20T09:47:54.802Z,28.20
2018-08-20T09:50:22.405Z,28.20
2018-08-20T09:52:50.029Z,28.20
2018-08-20T09:55:17.981Z,28.20
2018-08-20T09:57:46.125Z,28.30
2018-08-20T10:00:20.601Z,28.40
2018-08-20T10:02:48.590Z,28.60
2018-08-20T10:05:17.450Z,28.70
2018-08-20T10:07:45.681Z,28.70
2018-08-20T10:10:13.383Z,28.80
2018-08-20T10:12:42.155Z,28.90
2018-08-20T10:15:10.216Z,29.10
2018-08-20T10:17:37.801Z,29.20
2018-08-20T10:20:07.589Z,29.40
2018-08-20T10:22:35.231Z,29.50
2018-08-20T10:25:03.553Z,29.70
2018-08-20T10:27:31.129Z,29.90
2018-08-20T10:29:58.802Z,30.00
2018-08-20T10:32:26.531Z,30.30
2018-08-20T10:34:54.319Z,30.50
2018-08-20T10:37:22.017Z,30.70
2018-08-20T10:39:49.752Z,31.00
2018-08-20T10:42:17.527Z,31.30
2018-08-20T10:44:50.603Z,31.80
2018-08-20T10:47:18.621Z,33.10
2018-08-20T10:49:46.321Z,35.70
2018-08-20T10:52:14.015Z,37.10
2018-08-20T10:54:41.875Z,36.50
2018-08-20T10:57:09.465Z,37.30
2018-08-20T10:59:37.869Z,38.20
2018-08-20T11:02:05.781Z,37.50
2018-08-20T11:04:33.452Z,36.60
2018-08-20T11:07:01.068Z,35.80
2018-08-20T11:09:28.714Z,35.00
2018-08-20T11:11:56.333Z,34.20
2018-08-20T11:14:23.963Z,33.60
2018-08-20T11:16:51.664Z,33.10
2018-08-20T11:19:19.221Z,32.90
2018-08-20T11:21:46.940Z,34.10
2018-08-20T11:24:14.528Z,36.80
2018-08-20T11:26:42.196Z,40.50
2018-08-20T11:29:09.780Z,43.70
2018-08-20T11:31:37.315Z,44.70
2018-08-20T11:34:04.919Z,46.00
2018-08-20T11:36:32.520Z,47.80
2018-08-20T11:39:00.103Z,49.70
2018-08-20T11:41:27.695Z,50.40
2018-08-20T11:43:55.250Z,49.10
2018-08-20T11:46:22.836Z,47.10
2018-08-20T11:48:50.453Z,48.10
2018-08-20T11:51:18.005Z,49.90
2018-08-20T11:53:45.544Z,51.60
2018-08-20T11:56:13.100Z,52.80
2018-08-20T11:58:40.676Z,53.70
2018-08-20T12:01:08.312Z,53.90
2018-08-20T12:03:35.934Z,53.50
2018-08-20T12:06:03.649Z,54.10
2018-08-20T12:08:31.271Z,54.40
2018-08-20T12:10:58.829Z,55.00
2018-08-20T12:13:26.426Z,55.50
2018-08-20T12:15:54.087Z,55.90
2018-08-20T12:18:21.716Z,55.80
2018-08-20T12:20:49.299Z,55.30
2018-08-20T12:23:16.909Z,55.40
2018-08-20T12:25:44.497Z,55.80
2018-08-20T12:28:12.201Z,56.10
2018-08-20T12:30:39.791Z,56.40
2018-08-20T12:33:07.774Z,56.70
2018-08-20T12:35:35.359Z,56.70
2018-08-20T12:38:03.041Z,56.60
2018-08-20T12:40:30.706Z,56.40
2018-08-20T12:42:58.260Z,56.30
2018-08-20T12:45:25.935Z,56.30
2018-08-20T12:47:53.591Z,56.20
2018-08-20T12:50:21.134Z,56.10
2018-08-20T12:52:48.819Z,55.80
2018-08-20T12:55:16.446Z,55.60
2018-08-20T12:57:44.169Z,55.30
2018-08-20T13:00:11.782Z,54.80
2018-08-20T13:02:39.492Z,54.40
2018-08-20T13:05:07.327Z,53.90
2018-08-20T13:07:35.391Z,53.60
2018-08-20T13:10:03.517Z,53.30
2018-08-20T13:12:31.523Z,53.00
2018-08-20T13:14:59.386Z,52.60
2018-08-20T13:17:27.197Z,52.40
2018-08-20T13:19:54.921Z,52.10
2018-08-20T13:22:23.119Z,51.90
2018-08-20T13:24:50.899Z,51.60
2018-08-20T13:27:18.517Z,51.20
2018-08-20T13:29:46.178Z,50.70
2018-08-20T13:32:13.767Z,50.30
2018-08-20T13:34:41.352Z,49.90
2018-08-20T13:37:09.140Z,49.50
2018-08-20T13:39:36.788Z,48.80
2018-08-20T13:42:04.611Z,47.30
2018-08-20T13:44:32.242Z,46.00
2018-08-20T13:46:59.825Z,45.40
2018-08-20T13:49:27.430Z,44.80
2018-08-20T13:51:55.107Z,44.20
2018-08-20T13:54:22.719Z,43.50
2018-08-20T13:56:50.353Z,42.70
2018-08-20T13:59:18.036Z,41.90
2018-08-20T14:01:45.627Z,41.20
2018-08-20T14:04:13.213Z,40.50
2018-08-20T14:06:40.820Z,39.90
2018-08-20T14:09:09.309Z,39.30
2018-08-20T14:11:37.056Z,38.80
2018-08-20T14:14:04.995Z,38.50
2018-08-20T14:16:32.714Z,38.10
2018-08-20T14:19:00.362Z,37.90
2018-08-20T14:21:28.044Z,37.70
2018-08-20T14:23:55.796Z,37.40
2018-08-20T14:26:23.494Z,37.10
2018-08-20T14:28:51.305Z,37.00
2018-08-20T14:31:18.969Z,36.80
2018-08-20T14:33:46.555Z,36.70
2018-08-20T14:36:14.237Z,36.60
2018-08-20T14:38:42.169Z,36.40
2018-08-20T14:41:10.119Z,36.00
2018-08-20T14:43:37.789Z,35.60
2018-08-20T14:46:11.265Z,35.30
2018-08-20T14:48:39.009Z,35.30
2018-08-20T14:51:07.207Z,35.30
2018-08-20T14:53:35.042Z,35.20
2018-08-20T14:56:03.061Z,35.20
2018-08-20T14:58:31.047Z,35.30
2018-08-20T15:00:58.879Z,35.20
2018-08-20T15:03:26.560Z,35.20
2018-08-20T15:05:54.271Z,35.20
2018-08-20T15:08:22.040Z,35.10
2018-08-20T15:10:49.757Z,35.10
2018-08-20T15:13:17.423Z,35.00
2018-08-20T15:15:45.298Z,35.00
2018-08-20T15:18:13.127Z,34.90
2018-08-20T15:20:40.895Z,34.70
2018-08-20T15:23:08.719Z,34.60
2018-08-20T15:25:36.520Z,34.60
2018-08-20T15:28:04.211Z,34.50
2018-08-20T15:30:31.836Z,34.40
2018-08-20T15:32:59.484Z,34.30
2018-08-20T15:35:27.111Z,34.20
2018-08-20T15:37:54.896Z,34.20
2018-08-20T15:40:22.598Z,34.20
2018-08-20T15:42:50.227Z,34.10
2018-08-20T15:45:17.850Z,34.10
2018-08-20T15:47:45.463Z,34.00
2018-08-20T15:50:13.172Z,33.90
2018-08-20T15:52:40.950Z,33.80
2018-08-20T15:55:08.650Z,33.80
2018-08-20T15:57:36.257Z,33.80
2018-08-20T16:00:04.860Z,33.60
2018-08-20T16:02:32.430Z,33.60
2018-08-20T16:05:00.053Z,33.50
2018-08-20T16:07:27.717Z,33.40
2018-08-20T16:09:55.336Z,33.30
2018-08-20T16:12:23.127Z,33.20
2018-08-20T16:14:50.756Z,33.10
2018-08-20T16:17:18.438Z,33.00
2018-08-20T16:19:46.064Z,32.90
2018-08-20T16:22:13.728Z,32.80
2018-08-20T16:24:41.364Z,32.70
2018-08-20T16:27:08.994Z,32.60
2018-08-20T16:29:36.655Z,32.60
2018-08-20T16:32:04.436Z,32.50
2018-08-20T16:34:32.042Z,32.50
2018-08-20T16:36:59.774Z,32.40
2018-08-20T16:39:27.436Z,32.40
2018-08-20T16:41:55.212Z,32.20
2018-08-20T16:44:22.889Z,32.10
2018-08-20T16:46:50.522Z,32.00
2018-08-20T16:49:18.231Z,31.90
2018-08-20T16:51:45.983Z,31.80
2018-08-20T16:54:13.601Z,31.70
2018-08-20T16:56:41.186Z,31.70
2018-08-20T16:59:08.779Z,31.60
2018-08-20T17:01:36.541Z,31.50
2018-08-20T17:04:04.426Z,31.50
2018-08-20T17:06:46.304Z,31.30
2018-08-20T17:09:13.886Z,31.20
2018-08-20T17:11:41.495Z,31.00
2018-08-20T17:14:09.157Z,31.00
2018-08-20T17:16:37.033Z,30.90
2018-08-20T17:19:05.041Z,30.80
2018-08-20T17:21:32.693Z,30.80
2018-08-20T17:24:00.570Z,30.70
2018-08-20T17:26:28.582Z,30.60
2018-08-20T17:29:00.993Z,30.40
2018-08-20T17:31:28.992Z,30.30
2018-08-20T17:33:56.865Z,30.20
2018-08-20T17:36:24.695Z,30.20
2018-08-20T17:38:52.571Z,30.10
2018-08-20T17:41:20.551Z,30.00
2018-08-20T17:43:48.423Z,29.90
2018-08-20T17:46:16.391Z,29.90
2018-08-20T17:48:44.696Z,29.80
2018-08-20T17:51:14.428Z,29.70
2018-08-20T17:53:52.774Z,29.60
2018-08-20T17:56:20.674Z,29.60
2018-08-20T17:58:56.664Z,29.50
2018-08-20T18:01:25.207Z,29.40
2018-08-20T18:03:53.419Z,29.40
2018-08-20T18:06:22.780Z,29.30
2018-08-20T18:08:50.418Z,29.20
2018-08-20T18:11:18.213Z,29.20
2018-08-20T18:13:47.100Z,29.10
2018-08-20T18:16:15.977Z,29.10
2018-08-20T18:18:46.149Z,29.00
2018-08-20T18:21:14.640Z,28.90
2018-08-20T18:23:42.588Z,28.80
2018-08-20T18:26:10.372Z,28.80
2018-08-20T18:28:44.729Z,28.70
2018-08-20T18:31:14.058Z,28.60
2018-08-20T18:33:43.043Z,28.60
2018-08-20T18:36:14.299Z,28.50
2018-08-20T18:38:54.597Z,28.40
2018-08-20T18:41:33.160Z,28.30
2018-08-20T18:44:01.561Z,28.20
2018-08-20T18:46:29.696Z,28.10
2018-08-20T18:48:57.619Z,28.10
2018-08-20T18:51:25.436Z,28.10
2018-08-20T18:53:55.660Z,28.10
2018-08-20T18:56:23.961Z,28.00
2018-08-20T18:58:51.778Z,28.00
2018-08-20T19:01:19.620Z,27.90
2018-08-20T19:03:48.345Z,27.90
2018-08-20T19:06:16.914Z,27.80
2018-08-20T19:08:44.649Z,27.70
2018-08-20T19:11:13.027Z,27.60
2018-08-20T19:13:41.765Z,27.50
2018-08-20T19:16:36.016Z,27.50
2018-08-20T19:19:04.515Z,27.40
2018-08-20T19:21:35.607Z,27.30
2018-08-20T19:24:03.437Z,27.30
2018-08-20T19:26:31.300Z,27.20
2018-08-20T19:29:07.340Z,27.10
2018-08-20T19:31:35.098Z,27.10
2018-08-20T19:34:02.918Z,27.00
2018-08-20T19:36:30.744Z,26.90
2018-08-20T19:38:58.604Z,26.90
2018-08-20T19:41:27.006Z,26.80
2018-08-20T19:43:54.995Z,26.80
2018-08-20T19:46:30.173Z,26.70
2018-08-20T19:49:04.093Z,26.70
2018-08-20T19:51:33.859Z,26.60
2018-08-20T19:54:01.883Z,26.60
2018-08-20T19:56:29.649Z,26.60
2018-08-20T19:58:57.556Z,26.50
2018-08-20T20:01:25.763Z,26.50
2018-08-20T20:03:53.840Z,26.40
2018-08-20T20:06:21.784Z,26.40
2018-08-20T20:08:49.550Z,26.30
2018-08-20T20:11:23.571Z,26.30
2018-08-20T20:13:52.493Z,26.30
2018-08-20T20:16:20.522Z,26.20
2018-08-20T20:18:48.588Z,26.10
2018-08-20T20:21:16.453Z,26.10
2018-08-20T20:23:44.235Z,26.10
2018-08-20T20:26:11.937Z,26.00
2018-08-20T20:28:39.869Z,26.00
2018-08-20T20:31:08.128Z,25.90
2018-08-20T20:33:36.011Z,25.90
2018-08-20T20:36:08.005Z,25.80
2018-08-20T20:38:35.665Z,25.80
2018-08-20T20:41:03.278Z,25.70
2018-08-20T20:43:36.834Z,25.70
2018-08-20T20:46:05.997Z,25.70
2018-08-20T20:48:33.684Z,25.70
2018-08-20T20:51:01.392Z,25.70
2018-08-20T20:53:29.987Z,25.70
2018-08-20T20:55:57.921Z,25.60
2018-08-20T20:58:31.302Z,25.60
2018-08-20T21:01:00.080Z,25.50
2018-08-20T21:03:27.998Z,25.50
2018-08-20T21:05:56.143Z,25.40
2018-08-20T21:08:37.492Z,25.40
2018-08-20T21:11:05.472Z,25.40
2018-08-20T21:13:33.227Z,25.30
2018-08-20T21:16:04.954Z,25.30
2018-08-20T21:18:33.735Z,25.20
2018-08-20T21:21:01.510Z,25.20
2018-08-20T21:23:29.884Z,25.20
2018-08-20T21:25:57.581Z,25.10
2018-08-20T21:28:56.224Z,25.10
2018-08-20T21:31:25.108Z,25.10
2018-08-20T21:33:54.718Z,25.00
2018-08-20T21:36:22.474Z,25.00
2018-08-20T21:38:50.133Z,25.00
2018-08-20T21:41:21.751Z,24.90
2018-08-20T21:43:49.721Z,24.90
2018-08-20T21:46:17.301Z,24.80
2018-08-20T21:48:45.336Z,24.80
2018-08-20T21:51:29.078Z,24.70
2018-08-20T21:53:57.027Z,24.70
2018-08-20T21:56:29.231Z,24.60
2018-08-20T21:58:56.910Z,24.60
2018-08-20T22:01:24.578Z,24.60
2018-08-20T22:03:52.495Z,24.50
2018-08-20T22:06:20.180Z,24.40
2018-08-20T22:08:47.797Z,24.40
2018-08-20T22:11:15.588Z,24.40
2018-08-20T22:13:43.223Z,24.30
2018-08-20T22:16:22.152Z,24.30
2018-08-20T22:18:54.002Z,24.30
2018-08-20T22:21:21.785Z,24.20
2018-08-20T22:23:49.442Z,24.20
2018-08-20T22:26:18.664Z,24.20
2018-08-20T22:28:48.865Z,24.10
2018-08-20T22:31:16.572Z,24.10
2018-08-20T22:33:54.693Z,24.10
2018-08-20T22:36:22.396Z,24.10
2018-08-20T22:38:51.524Z,24.00
2018-08-20T22:41:19.625Z,23.90
2018-08-20T22:43:47.517Z,23.90
2018-08-20T22:46:15.170Z,23.90
2018-08-20T22:48:42.764Z,23.90
2018-08-20T22:51:14.930Z,23.90
2018-08-20T22:53:45.969Z,23.90
2018-08-20T22:56:26.037Z,23.80
2018-08-20T22:59:01.203Z,23.80
2018-08-20T23:01:28.915Z,23.80
2018-08-20T23:03:56.601Z,23.70
2018-08-20T23:06:24.552Z,23.70
2018-08-20T23:08:52.284Z,23.70
2018-08-20T23:11:37.127Z,23.70
2018-08-20T23:14:05.849Z,23.60
2018-08-20T23:16:33.463Z,23.60
2018-08-20T23:19:01.046Z,23.50
2018-08-20T23:21:33.286Z,23.50
2018-08-20T23:24:00.865Z,23.50
2018-08-20T23:26:28.442Z,23.50
2018-08-20T23:28:56.031Z,23.40
2018-08-20T23:31:23.590Z,23.40
2018-08-20T23:33:51.185Z,23.30
2018-08-20T23:36:18.837Z,23.30
2018-08-20T23:38:46.428Z,23.30
2018-08-20T23:41:14.044Z,23.30
2018-08-20T23:43:46.207Z,23.20
2018-08-20T23:46:25.940Z,23.20
2018-08-20T23:48:53.731Z,23.10
2018-08-20T23:51:21.311Z,23.10
2018-08-20T23:53:48.864Z,23.00
2018-08-20T23:56:16.468Z,23.00
2018-08-20T23:58:43.976Z,23.00
